Time;durP1;ratioP1;P1;durP2;ratioP2;P2;SDS_P1;SDS_P2;PMS_P1;PMS_P2;Temp;Humidity;BMP_temperature;BMP_pressure;BME280_temperature;BME280_humidity;BME280_pressure;Samples;Min_cycle;Max_cycle;Signal;HPM_P1;HPM_P2
2021/07/07 00:01:57;;;;;;;1999.90;999.90;;;;;;;18.54;96.40;95596.22;5112280;27;20252;-67
2021/07/07 00:04:24;;;;;;;1999.90;999.90;;;;;;;18.61;95.90;95596.41;5112477;28;20247;-66
2021/07/07 00:06:51;;;;;;;1999.90;999.90;;;;;;;18.46;96.39;95597.16;5112118;28;20202;-66
2021/07/07 00:09:19;;;;;;;1999.90;999.90;;;;;;;18.49;96.74;95597.22;5111870;28;20222;-66
2021/07/07 00:11:48;;;;;;;1999.90;999.90;;;;;;;18.47;95.30;95598.69;5112203;28;20229;-66
2021/07/07 00:14:15;;;;;;;1999.90;999.90;;;;;;;18.39;95.20;95591.69;5111943;28;20218;-66
2021/07/07 00:16:42;;;;;;;1999.90;999.90;;;;;;;18.31;96.34;95584.75;5112135;28;20271;-67
2021/07/07 00:19:09;;;;;;;1999.90;999.90;;;;;;;18.18;95.58;95591.22;5111127;28;20191;-66
2021/07/07 00:21:36;;;;;;;1999.90;999.90;;;;;;;17.97;95.45;95588.81;5112090;28;20723;-67
2021/07/07 00:24:03;;;;;;;1999.90;999.90;;;;;;;17.85;96.58;95583.59;5112100;27;20255;-66
2021/07/07 00:26:30;;;;;;;1999.90;999.90;;;;;;;17.83;96.63;95591.06;5111376;28;20751;-67
2021/07/07 00:28:59;;;;;;;1999.90;999.90;;;;;;;17.79;96.67;95590.97;5111883;28;20648;-67
2021/07/07 00:31:26;;;;;;;1999.90;999.90;;;;;;;17.77;96.54;95598.44;5111870;27;20749;-66
2021/07/07 00:33:53;;;;;;;1999.90;999.90;;;;;;;17.75;96.54;95597.22;5114112;27;20248;-67
2021/07/07 00:36:20;;;;;;;1999.90;999.90;;;;;;;17.47;97.05;95594.59;5111764;28;20203;-67
2021/07/07 00:38:47;;;;;;;1999.90;999.90;;;;;;;17.35;97.83;95595.38;5111827;28;20208;-66
2021/07/07 00:41:15;;;;;;;1999.90;999.90;;;;;;;17.36;98.72;95593.53;5111120;28;20598;-67
2021/07/07 00:43:42;;;;;;;1999.90;999.90;;;;;;;17.43;98.92;95588.47;5111693;28;20282;-66
2021/07/07 00:46:11;;;;;;;1999.90;999.90;;;;;;;17.64;97.89;95591.69;5111362;28;20671;-66
2021/07/07 00:48:38;;;;;;;1999.90;999.90;;;;;;;17.76;96.86;95589.03;5111477;28;20210;-65
2021/07/07 00:51:05;;;;;;;1999.90;999.90;;;;;;;17.85;96.11;95599.38;5111527;28;20203;-66
2021/07/07 00:53:33;;;;;;;1999.90;999.90;;;;;;;17.91;94.73;95596.19;5111177;28;20203;-66
2021/07/07 00:56:01;;;;;;;1999.90;999.90;;;;;;;18.01;94.48;95600.94;5111082;28;20229;-66
2021/07/07 00:58:29;;;;;;;1999.90;999.90;;;;;;;17.99;94.14;95605.75;5111478;28;20244;-66
2021/07/07 01:00:57;;;;;;;1999.90;999.90;;;;;;;18.07;93.57;95609.34;5110887;28;20198;-69
2021/07/07 01:03:25;;;;;;;1999.90;999.90;;;;;;;18.02;93.74;95602.47;5111314;28;20248;-66
2021/07/07 01:05:52;;;;;;;1999.90;999.90;;;;;;;18.02;93.90;95604.34;5110943;28;20199;-67
2021/07/07 01:08:19;;;;;;;1999.90;999.90;;;;;;;18.05;93.38;95608.91;5111145;28;20203;-67
2021/07/07 01:10:47;;;;;;;1999.90;999.90;;;;;;;17.99;93.52;95607.63;5110792;28;20229;-67
2021/07/07 01:13:14;;;;;;;1999.90;999.90;;;;;;;17.85;94.32;95610.66;5110477;28;20276;-67
2021/07/07 01:15:43;;;;;;;1999.90;999.90;;;;;;;17.88;94.55;95609.97;5110744;28;20256;-67
2021/07/07 01:18:11;;;;;;;1999.90;999.90;;;;;;;17.82;94.97;95615.84;5110572;28;20230;-67
2021/07/07 01:20:40;;;;;;;1999.90;999.90;;;;;;;17.87;95.14;95613.72;5110878;28;20203;-66
2021/07/07 01:23:09;;;;;;;1999.90;999.90;;;;;;;17.96;94.80;95610.94;5110599;28;20772;-67
2021/07/07 01:25:36;;;;;;;1999.90;999.90;;;;;;;17.95;94.82;95607.53;5110449;28;20195;-66
2021/07/07 01:28:05;;;;;;;1999.90;999.90;;;;;;;17.94;95.18;95610.50;5110433;28;20191;-66
2021/07/07 01:30:33;;;;;;;1999.90;999.90;;;;;;;17.95;95.28;95612.03;5110299;28;20223;-67
2021/07/07 01:33:00;;;;;;;1999.90;999.90;;;;;;;17.89;94.87;95614.13;5110060;28;20202;-67
2021/07/07 01:35:28;;;;;;;1999.90;999.90;;;;;;;17.90;95.82;95607.78;5110279;28;20679;-66
2021/07/07 01:37:56;;;;;;;1999.90;999.90;;;;;;;17.89;95.75;95605.47;5110191;28;20697;-65
2021/07/07 01:40:26;;;;;;;1999.90;999.90;;;;;;;17.90;96.29;95607.03;5110483;28;20238;-67
2021/07/07 01:42:54;;;;;;;1999.90;999.90;;;;;;;17.89;96.62;95616.00;5110506;28;20198;-66
2021/07/07 01:45:23;;;;;;;1999.90;999.90;;;;;;;17.95;96.24;95615.44;5110210;27;20219;-66
2021/07/07 01:47:50;;;;;;;1999.90;999.90;;;;;;;17.93;96.94;95614.25;5110264;28;20195;-66
2021/07/07 01:50:17;;;;;;;1999.90;999.90;;;;;;;17.91;97.00;95619.84;5110261;28;20698;-65
2021/07/07 01:52:45;;;;;;;1999.90;999.90;;;;;;;17.95;96.83;95619.94;5110034;28;20199;-67
2021/07/07 01:55:15;;;;;;;1999.90;999.90;;;;;;;17.95;96.61;95625.19;5109926;28;20202;-66
2021/07/07 01:57:45;;;;;;;1999.90;999.90;;;;;;;17.96;96.86;95626.72;5109867;28;20647;-68
2021/07/07 02:00:13;;;;;;;1999.90;999.90;;;;;;;17.93;96.98;95633.41;5110127;28;20221;-67
2021/07/07 02:02:41;;;;;;;1999.90;999.90;;;;;;;17.93;96.81;95627.41;5104267;28;20195;-67
2021/07/07 02:05:10;;;;;;;1999.90;999.90;;;;;;;17.90;97.25;95630.69;5097602;28;20230;-67
2021/07/07 02:07:38;;;;;;;1999.90;999.90;;;;;;;17.90;97.19;95628.06;5109378;28;20195;-67
2021/07/07 02:10:08;;;;;;;1999.90;999.90;;;;;;;17.83;97.29;95620.72;5106890;28;20223;-66
2021/07/07 02:12:35;;;;;;;1999.90;999.90;;;;;;;17.75;97.63;95634.03;5109474;28;20229;-66
2021/07/07 02:15:08;;;;;;;1999.90;999.90;;;;;;;17.76;97.22;95644.22;5109501;28;20647;-66
2021/07/07 02:17:35;;;;;;;1999.90;999.90;;;;;;;17.74;96.42;95646.41;5109615;28;20187;-67
2021/07/07 02:20:02;;;;;;;1999.90;999.90;;;;;;;17.68;95.43;95642.50;5109518;28;20195;-67
2021/07/07 02:22:29;;;;;;;1999.90;999.90;;;;;;;17.67;94.93;95646.22;5109658;28;20615;-72
2021/07/07 02:24:56;;;;;;;1999.90;999.90;;;;;;;17.66;95.06;95644.69;5109448;28;20203;-66
2021/07/07 02:27:24;;;;;;;1999.90;999.90;;;;;;;17.67;95.14;95648.88;5109517;28;20191;-71
2021/07/07 02:29:50;;;;;;;1999.90;999.90;;;;;;;17.69;94.92;95653.75;5109394;28;20223;-68
2021/07/07 02:32:19;;;;;;;1999.90;999.90;;;;;;;17.74;94.19;95651.66;5109158;28;20234;-68
2021/07/07 02:34:46;;;;;;;1999.90;999.90;;;;;;;17.77;94.13;95656.28;5109490;28;20588;-68
2021/07/07 02:37:13;;;;;;;1999.90;999.90;;;;;;;17.76;94.03;95653.97;5109500;28;20190;-68
2021/07/07 02:39:40;;;;;;;1999.90;999.90;;;;;;;17.69;94.09;95654.53;5109629;28;20712;-68
2021/07/07 02:42:07;;;;;;;1999.90;999.90;;;;;;;17.56;94.51;95655.66;5120116;27;20287;-66
2021/07/07 02:44:34;;;;;;;1999.90;999.90;;;;;;;17.60;94.56;95651.28;5130038;27;20255;-68
2021/07/07 02:47:02;;;;;;;1999.90;999.90;;;;;;;17.54;94.99;95650.72;5129660;27;20198;-68
2021/07/07 02:49:30;;;;;;;1999.90;999.90;;;;;;;17.51;95.12;95655.88;5090532;28;20228;-68
2021/07/07 02:51:57;;;;;;;1999.90;999.90;;;;;;;17.52;95.28;95655.56;5095545;28;20686;-67
2021/07/07 02:54:24;;;;;;;1999.90;999.90;;;;;;;17.53;95.25;95662.31;5109017;28;20199;-69
2021/07/07 02:56:51;;;;;;;1999.90;999.90;;;;;;;17.55;94.90;95654.13;5109053;28;20199;-68
2021/07/07 02:59:18;;;;;;;1999.90;999.90;;;;;;;17.56;95.27;95660.91;5108370;28;20214;-69
2021/07/07 03:01:45;;;;;;;1999.90;999.90;;;;;;;17.57;95.38;95665.06;5108730;28;20199;-68
2021/07/07 03:04:12;;;;;;;1999.90;999.90;;;;;;;17.66;94.77;95664.97;5108016;28;20252;-68
2021/07/07 03:06:41;;;;;;;1999.90;999.90;;;;;;;17.60;94.78;95667.06;5107421;28;20195;-68
2021/07/07 03:09:10;;;;;;;1999.90;999.90;;;;;;;17.59;95.64;95668.16;5109178;28;20206;-67
2021/07/07 03:11:37;;;;;;;1999.90;999.90;;;;;;;17.55;96.24;95677.78;5102669;28;20204;-68
2021/07/07 03:14:05;;;;;;;1999.90;999.90;;;;;;;17.48;96.78;95680.97;5089148;28;20683;-68
2021/07/07 03:16:32;;;;;;;1999.90;999.90;;;;;;;17.42;97.04;95684.16;5108647;28;20218;-67
2021/07/07 03:18:59;;;;;;;1999.90;999.90;;;;;;;17.31;97.34;95683.06;5108012;28;20481;-66
2021/07/07 03:21:26;;;;;;;1999.90;999.90;;;;;;;17.27;98.68;95687.47;5108903;28;20884;-68
2021/07/07 03:23:54;;;;;;;1999.90;999.90;;;;;;;17.20;98.65;95688.00;5109286;28;20260;-66
2021/07/07 03:26:21;;;;;;;1999.90;999.90;;;;;;;17.09;99.47;95679.81;5105543;28;20742;-67
2021/07/07 03:28:48;;;;;;;1999.90;999.90;;;;;;;17.04;100.00;95677.41;5093193;28;20200;-67
2021/07/07 03:31:16;;;;;;;1999.90;999.90;;;;;;;17.00;100.00;95673.16;5101127;28;20261;-68
2021/07/07 03:33:43;;;;;;;1999.90;999.90;;;;;;;16.85;100.00;95682.44;5088938;28;20200;-68
2021/07/07 03:36:10;;;;;;;1999.90;999.90;;;;;;;16.83;100.00;95687.28;5088892;28;20567;-68
2021/07/07 03:38:37;;;;;;;1999.90;999.90;;;;;;;16.80;100.00;95682.66;5088801;28;20265;-67
2021/07/07 03:41:05;;;;;;;1999.90;999.90;;;;;;;16.84;100.00;95688.03;5102331;28;20228;-67
2021/07/07 03:43:33;;;;;;;1999.90;999.90;;;;;;;17.01;100.00;95693.06;5105636;28;20264;-67
2021/07/07 03:46:00;;;;;;;1999.90;999.90;;;;;;;17.18;100.00;95688.34;5108121;28;20214;-67
2021/07/07 03:48:27;;;;;;;1999.90;999.90;;;;;;;17.30;100.00;95695.44;5109030;28;20303;-62
2021/07/07 03:50:54;;;;;;;1999.90;999.90;;;;;;;17.31;100.00;95685.72;5108474;28;20234;-63
2021/07/07 03:53:21;;;;;;;1999.90;999.90;;;;;;;17.37;100.00;95695.66;5109048;28;20663;-64
2021/07/07 03:55:48;;;;;;;1999.90;999.90;;;;;;;17.54;98.85;95699.88;5110689;28;20618;-63
2021/07/07 03:58:17;;;;;;;1999.90;999.90;;;;;;;17.67;97.22;95701.44;5112433;28;20214;-63
2021/07/07 04:00:44;;;;;;;1999.90;999.90;;;;;;;17.68;97.18;95705.59;5112293;27;20195;-63
2021/07/07 04:03:12;;;;;;;1999.90;999.90;;;;;;;17.73;97.82;95707.22;5112167;28;20234;-63
2021/07/07 04:05:39;;;;;;;1999.90;999.90;;;;;;;17.79;97.36;95709.28;5112523;28;20305;-63
2021/07/07 04:08:06;;;;;;;1999.90;999.90;;;;;;;17.81;97.76;95708.94;5111935;28;20234;-63
2021/07/07 04:10:33;;;;;;;1999.90;999.90;;;;;;;17.87;96.70;95705.75;5112196;28;20284;-72
2021/07/07 04:13:00;;;;;;;1999.90;999.90;;;;;;;17.98;96.48;95704.16;5111857;28;20195;-72
2021/07/07 04:15:29;;;;;;;1999.90;999.90;;;;;;;18.06;96.24;95705.13;5112162;27;20195;-61
2021/07/07 04:17:56;;;;;;;1999.90;999.90;;;;;;;18.19;95.28;95703.19;5112047;28;20279;-62
2021/07/07 04:20:23;;;;;;;1999.90;999.90;;;;;;;18.19;95.45;95708.47;5112261;28;20203;-62
2021/07/07 04:22:50;;;;;;;1999.90;999.90;;;;;;;18.29;95.22;95713.25;5111694;28;20235;-68
2021/07/07 04:25:18;;;;;;;1999.90;999.90;;;;;;;18.37;95.10;95707.06;5112174;28;20226;-68
2021/07/07 04:27:45;;;;;;;1999.90;999.90;;;;;;;18.54;94.25;95712.03;5111701;28;20195;-67
2021/07/07 04:30:16;;;;;;;1999.90;999.90;;;;;;;18.67;93.75;95718.00;5111566;28;20219;-67
2021/07/07 04:32:45;;;;;;;1999.90;999.90;;;;;;;18.82;94.65;95715.38;5111752;28;20179;-68
2021/07/07 04:35:13;;;;;;;1999.90;999.90;;;;;;;19.12;92.88;95722.84;5111733;28;20207;-65
2021/07/07 04:37:41;;;;;;;1999.90;999.90;;;;;;;19.63;91.70;95729.66;5111409;28;20195;-66
2021/07/07 04:40:09;;;;;;;1999.90;999.90;;;;;;;20.17;88.11;95726.22;5111228;28;20292;-67
2021/07/07 04:42:36;;;;;;;1999.90;999.90;;;;;;;20.66;85.39;95722.97;5098639;28;20700;-67
2021/07/07 04:45:04;;;;;;;1999.90;999.90;;;;;;;21.12;84.35;95727.09;5091315;28;20207;-68
2021/07/07 04:47:32;;;;;;;1999.90;999.90;;;;;;;21.64;81.34;95736.97;5091042;28;20203;-66
2021/07/07 04:50:00;;;;;;;1999.90;999.90;;;;;;;21.91;79.38;95732.41;5090761;28;20957;-66
2021/07/07 04:52:27;;;;;;;1999.90;999.90;;;;;;;21.90;78.17;95739.56;5113315;27;20264;-66
2021/07/07 04:54:54;;;;;;;1999.90;999.90;;;;;;;21.83;78.72;95738.72;5111074;28;20224;-66
2021/07/07 04:57:21;;;;;;;1999.90;999.90;;;;;;;22.05;76.77;95740.53;5110943;28;20199;-67
2021/07/07 04:59:48;;;;;;;1999.90;999.90;;;;;;;22.16;77.91;95741.44;5111021;28;20732;-63
2021/07/07 05:02:15;;;;;;;1999.90;999.90;;;;;;;22.10;77.85;95748.16;5111428;28;20199;-70
2021/07/07 05:04:44;;;;;;;1999.90;999.90;;;;;;;22.12;77.52;95745.91;5106395;28;20203;-69
2021/07/07 05:07:13;;;;;;;1999.90;999.90;;;;;;;22.20;78.16;95744.09;5103765;28;20753;-66
2021/07/07 05:09:40;;;;;;;1999.90;999.90;;;;;;;22.31;77.46;95745.00;5110708;28;20698;-65
2021/07/07 05:12:07;;;;;;;1999.90;999.90;;;;;;;22.22;79.92;95741.84;5110195;28;20276;-65
2021/07/07 05:14:35;;;;;;;1999.90;999.90;;;;;;;21.92;80.80;95749.03;5110626;28;20195;-65
2021/07/07 05:17:02;;;;;;;1999.90;999.90;;;;;;;21.87;81.59;95748.22;5111285;28;20632;-68
2021/07/07 05:19:29;;;;;;;1999.90;999.90;;;;;;;22.33;79.68;95748.78;5111202;28;20226;-66
2021/07/07 05:21:56;;;;;;;1999.90;999.90;;;;;;;22.26;80.41;95750.59;5110844;28;20367;-66
2021/07/07 05:24:25;;;;;;;1999.90;999.90;;;;;;;22.20;80.61;95744.09;5110778;28;20194;-66
2021/07/07 05:26:52;;;;;;;1999.90;999.90;;;;;;;22.13;80.45;95750.06;5110648;28;20242;-65
2021/07/07 05:29:19;;;;;;;1999.90;999.90;;;;;;;22.12;80.51;95753.06;5110593;28;20203;-66
2021/07/07 05:31:46;;;;;;;1999.90;999.90;;;;;;;22.36;80.67;95749.19;5110226;28;20578;-65
2021/07/07 05:34:13;;;;;;;1999.90;999.90;;;;;;;22.36;80.71;95751.84;5110341;28;20202;-65
2021/07/07 05:36:40;;;;;;;1999.90;999.90;;;;;;;22.41;79.56;95751.53;5110815;28;20206;-65
2021/07/07 05:39:07;;;;;;;1999.90;999.90;;;;;;;22.64;79.22;95752.91;5110811;28;20199;-66
2021/07/07 05:41:35;;;;;;;1999.90;999.90;;;;;;;22.79;78.70;95753.81;5109995;28;20219;-66
2021/07/07 05:44:03;;;;;;;1999.90;999.90;;;;;;;22.88;78.05;95753.50;5110463;28;20252;-66
2021/07/07 05:46:30;;;;;;;1999.90;999.90;;;;;;;22.90;77.81;95749.38;5110380;28;20195;-66
2021/07/07 05:48:57;;;;;;;1999.90;999.90;;;;;;;23.01;77.98;95746.81;5110254;28;20252;-65
2021/07/07 05:51:24;;;;;;;1999.90;999.90;;;;;;;23.30;77.26;95751.22;5109892;28;20723;-66
2021/07/07 05:53:51;;;;;;;1999.90;999.90;;;;;;;23.66;76.53;95762.81;5110291;28;20211;-67
2021/07/07 05:56:18;;;;;;;1999.90;999.90;;;;;;;23.68;75.06;95760.56;5110331;28;20276;-67
2021/07/07 05:58:47;;;;;;;1999.90;999.90;;;;;;;23.87;72.44;95755.00;5110164;28;20255;-68
2021/07/07 06:01:14;;;;;;;1999.90;999.90;;;;;;;23.92;72.54;95754.63;5109973;28;20315;-68
2021/07/07 06:03:42;;;;;;;1999.90;999.90;;;;;;;24.06;73.62;95755.84;5110145;28;20252;-68
2021/07/07 06:06:09;;;;;;;1999.90;999.90;;;;;;;24.14;71.69;95749.41;5110080;28;20221;-69
2021/07/07 06:08:36;;;;;;;1999.90;999.90;;;;;;;24.05;71.43;95751.66;5110111;28;20203;-69
2021/07/07 06:11:03;;;;;;;1999.90;999.90;;;;;;;24.28;70.83;95760.13;5109978;28;20584;-69
2021/07/07 06:13:30;;;;;;;1999.90;999.90;;;;;;;24.20;73.66;95759.34;5110103;28;20202;-67
2021/07/07 06:15:59;;;;;;;1999.90;999.90;;;;;;;24.39;71.97;95760.91;5110076;28;20256;-67
2021/07/07 06:18:26;;;;;;;1999.90;999.90;;;;;;;24.77;72.60;95760.25;5109499;28;20663;-67
2021/07/07 06:20:53;;;;;;;1999.90;999.90;;;;;;;25.01;68.86;95763.31;5110025;28;20203;-67
2021/07/07 06:23:21;;;;;;;1999.90;999.90;;;;;;;25.03;67.90;95763.72;5109710;28;20269;-67
2021/07/07 06:25:48;;;;;;;1999.90;999.90;;;;;;;25.07;68.52;95764.47;5109850;28;20198;-67
2021/07/07 06:28:15;;;;;;;1999.90;999.90;;;;;;;25.06;69.20;95765.59;5109548;28;20194;-67
2021/07/07 06:30:42;;;;;;;1999.90;999.90;;;;;;;24.72;70.75;95757.19;5109301;28;20287;-66
2021/07/07 06:33:11;;;;;;;1999.90;999.90;;;;;;;25.04;68.89;95759.91;5109180;28;20671;-70
2021/07/07 06:35:38;;;;;;;1999.90;999.90;;;;;;;25.10;68.13;95761.06;5109933;28;20203;-68
2021/07/07 06:38:06;;;;;;;1999.90;999.90;;;;;;;25.21;68.86;95756.50;5109723;28;20590;-72
2021/07/07 06:40:34;;;;;;;1999.90;999.90;;;;;;;25.23;68.93;95759.53;5109207;28;20726;-73
2021/07/07 06:43:01;;;;;;;1999.90;999.90;;;;;;;25.09;70.63;95765.63;5109454;28;20241;-73
2021/07/07 06:45:30;;;;;;;1999.90;999.90;;;;;;;25.06;70.93;95760.28;5109743;28;20196;-72
2021/07/07 06:47:57;;;;;;;1999.90;999.90;;;;;;;25.12;69.91;95756.13;5109682;28;20199;-67
2021/07/07 06:50:26;;;;;;;1999.90;999.90;;;;;;;25.03;69.28;95758.41;5109578;28;20197;-65
2021/07/07 06:52:53;;;;;;;1999.90;999.90;;;;;;;25.29;68.16;95752.69;5109514;28;20203;-66
2021/07/07 06:55:21;;;;;;;1999.90;999.90;;;;;;;25.60;67.15;95751.91;5109535;28;20268;-65
2021/07/07 06:57:48;;;;;;;1999.90;999.90;;;;;;;25.81;68.64;95758.34;5109450;28;20585;-65
2021/07/07 07:00:17;;;;;;;1999.90;999.90;;;;;;;25.88;67.21;95756.44;5112069;28;20650;-65
2021/07/07 07:02:45;;;;;;;1999.90;999.90;;;;;;;26.22;66.08;95748.72;5109121;28;20191;-65
2021/07/07 07:05:13;;;;;;;1999.90;999.90;;;;;;;26.53;64.11;95747.81;5109357;28;20198;-65
2021/07/07 07:07:43;;;;;;;1999.90;999.90;;;;;;;26.64;64.53;95749.66;5109195;28;20287;-65
2021/07/07 07:10:12;;;;;;;1999.90;999.90;;;;;;;26.92;63.67;95746.81;5109105;28;20202;-66
2021/07/07 07:12:40;;;;;;;1999.90;999.90;;;;;;;27.05;64.15;95744.44;5109052;28;20242;-65
2021/07/07 07:15:10;;;;;;;1999.90;999.90;;;;;;;27.10;62.69;95744.03;5109092;28;20195;-62
2021/07/07 07:17:38;;;;;;;1999.90;999.90;;;;;;;27.05;64.23;95741.78;5109389;28;20206;-65
2021/07/07 07:20:08;;;;;;;1999.90;999.90;;;;;;;27.26;63.12;95744.25;5109072;28;20204;-63
2021/07/07 07:22:36;;;;;;;1999.90;999.90;;;;;;;27.49;61.68;95751.69;5109317;28;20203;-63
2021/07/07 07:25:05;;;;;;;1999.90;999.90;;;;;;;27.52;60.68;95753.59;5108823;28;20252;-63
2021/07/07 07:27:33;;;;;;;1999.90;999.90;;;;;;;27.47;61.30;95749.41;5109245;28;20194;-63
2021/07/07 07:30:00;;;;;;;1999.90;999.90;;;;;;;27.56;61.73;95748.97;5110464;28;20631;-61
2021/07/07 07:32:27;;;;;;;1999.90;999.90;;;;;;;27.50;60.35;95739.88;5112881;28;20226;-63
2021/07/07 07:34:54;;;;;;;1999.90;999.90;;;;;;;27.53;61.17;95739.84;5112712;28;20211;-63
2021/07/07 07:37:24;;;;;;;1999.90;999.90;;;;;;;27.45;60.89;95745.63;5112646;28;20207;-63
2021/07/07 07:39:53;;;;;;;1999.90;999.90;;;;;;;27.56;61.34;95743.63;5112996;28;20310;-63
2021/07/07 07:42:22;;;;;;;1999.90;999.90;;;;;;;27.70;59.77;95740.81;5112580;28;20195;-63
2021/07/07 07:44:50;;;;;;;1999.90;999.90;;;;;;;27.91;61.14;95734.47;5112572;28;20199;-62
2021/07/07 07:47:17;;;;;;;1999.90;999.90;;;;;;;28.15;61.29;95742.22;5112769;28;20203;-63
2021/07/07 07:49:44;;;;;;;1999.90;999.90;;;;;;;28.15;60.23;95741.47;5112461;28;20282;-63
2021/07/07 07:52:11;;;;;;;1999.90;999.90;;;;;;;28.27;59.32;95742.84;5112411;28;20233;-62
2021/07/07 07:54:38;;;;;;;1999.90;999.90;;;;;;;28.39;58.08;95742.34;5112542;28;20194;-62
2021/07/07 07:57:06;;;;;;;1999.90;999.90;;;;;;;28.50;57.07;95743.69;5112465;28;20229;-63
2021/07/07 07:59:35;;;;;;;1999.90;999.90;;;;;;;28.55;58.35;95742.47;5112526;28;20203;-63
2021/07/07 08:02:02;;;;;;;1999.90;999.90;;;;;;;28.80;57.95;95740.22;5112283;28;20257;-63
2021/07/07 08:04:29;;;;;;;1999.90;999.90;;;;;;;29.13;56.83;95746.63;5112168;28;20236;-63
2021/07/07 08:06:56;;;;;;;1999.90;999.90;;;;;;;29.47;55.39;95738.44;5112169;28;20678;-63
2021/07/07 08:09:24;;;;;;;1999.90;999.90;;;;;;;29.37;54.18;95740.13;5112138;28;20210;-62
2021/07/07 08:11:51;;;;;;;1999.90;999.90;;;;;;;29.56;54.06;95741.31;5112076;28;20227;-63
2021/07/07 08:14:18;;;;;;;1999.90;999.90;;;;;;;29.31;54.79;95743.66;5112244;28;20595;-62
2021/07/07 08:16:49;;;;;;;1999.90;999.90;;;;;;;29.32;53.76;95755.91;5111928;28;20195;-63
2021/07/07 08:19:16;;;;;;;1999.90;999.90;;;;;;;29.28;54.25;95747.91;5111930;28;20266;-62
2021/07/07 08:21:43;;;;;;;1999.90;999.90;;;;;;;29.82;52.81;95740.47;5111898;28;20195;-63
2021/07/07 08:24:10;;;;;;;1999.90;999.90;;;;;;;29.80;49.80;95742.78;5112026;28;20283;-61
2021/07/07 08:26:37;;;;;;;1999.90;999.90;;;;;;;30.12;50.13;95744.13;5112249;28;20256;-63
2021/07/07 08:29:04;;;;;;;1999.90;999.90;;;;;;;29.89;48.76;95742.25;5112075;28;20191;-61
2021/07/07 08:31:31;;;;;;;1999.90;999.90;;;;;;;30.28;48.89;95739.59;5111931;28;20234;-63
2021/07/07 08:34:00;;;;;;;1999.90;999.90;;;;;;;30.55;47.58;95744.78;5111971;28;20199;-61
2021/07/07 08:36:27;;;;;;;1999.90;999.90;;;;;;;30.81;48.25;95742.28;5111946;27;20210;-61
2021/07/07 08:38:55;;;;;;;1999.90;999.90;;;;;;;30.53;48.27;95747.13;5111431;28;20545;-61
2021/07/07 08:41:23;;;;;;;1999.90;999.90;;;;;;;30.85;46.17;95748.31;5110778;28;20226;-61
2021/07/07 08:43:50;;;;;;;1999.90;999.90;;;;;;;30.77;46.59;95735.09;5111752;28;20287;-61
2021/07/07 08:46:18;;;;;;;1999.90;999.90;;;;;;;30.60;46.91;95736.22;5111368;28;20191;-61
2021/07/07 08:48:45;;;;;;;1999.90;999.90;;;;;;;30.81;45.52;95740.38;5111210;28;20205;-61
2021/07/07 08:51:14;;;;;;;1999.90;999.90;;;;;;;31.03;45.20;95736.06;5111235;28;20268;-61
2021/07/07 08:53:43;;;;;;;1999.90;999.90;;;;;;;31.23;45.57;95735.19;5111662;28;20207;-62
2021/07/07 08:56:11;;;;;;;1999.90;999.90;;;;;;;31.28;45.57;95740.81;5111153;28;20244;-62
2021/07/07 08:58:38;;;;;;;1999.90;999.90;;;;;;;31.48;42.52;95738.00;5113637;27;20202;-62
2021/07/07 09:01:06;;;;;;;1999.90;999.90;;;;;;;31.56;41.53;95739.34;5111423;28;20195;-61
2021/07/07 09:03:33;;;;;;;1999.90;999.90;;;;;;;31.42;42.88;95734.31;5110955;28;20195;-61
2021/07/07 09:06:02;;;;;;;1999.90;999.90;;;;;;;31.68;42.42;95735.22;5111072;28;20199;-62
2021/07/07 09:08:33;;;;;;;1999.90;999.90;;;;;;;32.04;41.12;95736.50;5111043;28;20722;-62
2021/07/07 09:11:17;;;;;;;1999.90;999.90;;;;;;;32.23;40.76;95732.16;5110965;28;20648;-61
2021/07/07 09:13:46;;;;;;;1999.90;999.90;;;;;;;32.47;41.39;95735.34;5111020;28;20191;-62
2021/07/07 09:16:15;;;;;;;1999.90;999.90;;;;;;;32.38;38.70;95737.91;5110699;28;20229;-62
2021/07/07 09:18:42;;;;;;;1999.90;999.90;;;;;;;32.34;38.15;95735.31;5111192;28;20203;-62
2021/07/07 09:21:26;;;;;;;1999.90;999.90;;;;;;;32.37;38.97;95737.16;5111341;28;20195;-62
2021/07/07 09:23:55;;;;;;;1999.90;999.90;;;;;;;32.42;40.71;95733.94;5110850;28;20187;-62
2021/07/07 09:26:33;;;;;;;1999.90;999.90;;;;;;;32.44;40.27;95736.94;5110890;28;20558;-62
2021/07/07 09:29:00;;;;;;;1999.90;999.90;;;;;;;32.47;38.73;95740.72;5111009;28;20187;-62
2021/07/07 09:31:37;;;;;;;1999.90;999.90;;;;;;;32.52;38.52;95739.41;5110533;28;20248;-62
2021/07/07 09:34:15;;;;;;;1999.90;999.90;;;;;;;32.60;40.31;95744.16;5110599;28;20185;-62
2021/07/07 09:36:45;;;;;;;1999.90;999.90;;;;;;;32.72;39.63;95738.06;5110247;28;20203;-62
2021/07/07 09:39:15;;;;;;;1999.90;999.90;;;;;;;32.88;40.06;95743.31;5110731;28;20199;-62
2021/07/07 09:41:42;;;;;;;1999.90;999.90;;;;;;;32.38;40.94;95735.22;5110321;28;20322;-62
2021/07/07 09:44:10;;;;;;;1999.90;999.90;;;;;;;32.74;38.65;95729.53;5110639;28;20191;-62
2021/07/07 09:46:38;;;;;;;1999.90;999.90;;;;;;;32.77;40.64;95736.75;5110132;28;20209;-62
2021/07/07 09:49:05;;;;;;;1999.90;999.90;;;;;;;32.96;39.71;95737.72;5110443;28;20199;-62
2021/07/07 09:51:33;;;;;;;1999.90;999.90;;;;;;;33.08;38.59;95731.53;5110124;28;20295;-62
2021/07/07 09:54:04;;;;;;;1999.90;999.90;;;;;;;33.38;38.65;95732.88;5109802;28;20195;-62
2021/07/07 09:56:34;;;;;;;1999.90;999.90;;;;;;;33.37;38.25;95732.16;5110036;28;20194;-62
2021/07/07 09:59:02;;;;;;;1999.90;999.90;;;;;;;33.41;36.72;95732.78;5109997;28;20943;-62
2021/07/07 10:01:29;;;;;;;1999.90;999.90;;;;;;;33.52;39.71;95725.09;5110020;28;20199;-62
2021/07/07 10:03:58;;;;;;;1999.90;999.90;;;;;;;33.55;38.54;95732.31;5110036;28;20233;-62
2021/07/07 10:06:26;;;;;;;1999.90;999.90;;;;;;;33.61;36.54;95725.19;5109755;28;20231;-62
2021/07/07 10:08:53;;;;;;;1999.90;999.90;;;;;;;33.55;38.34;95735.00;5109794;28;20932;-62
2021/07/07 10:11:22;;;;;;;1999.90;999.90;;;;;;;33.33;39.58;95728.81;5109718;28;20201;-62
2021/07/07 10:13:51;;;;;;;1999.90;999.90;;;;;;;33.54;37.02;95730.03;5109679;28;20219;-62
2021/07/07 10:16:18;;;;;;;1999.90;999.90;;;;;;;33.62;36.79;95728.63;5110022;28;20923;-61
2021/07/07 10:18:45;;;;;;;1999.90;999.90;;;;;;;33.81;39.12;95724.91;5109980;28;20217;-62
2021/07/07 10:21:14;;;;;;;1999.90;999.90;;;;;;;34.08;37.77;95713.50;5109635;28;20697;-62
2021/07/07 10:23:42;;;;;;;1999.90;999.90;;;;;;;34.04;37.11;95721.75;5109997;28;20586;-64
2021/07/07 10:26:11;;;;;;;1999.90;999.90;;;;;;;33.85;37.78;95720.13;5109871;28;20202;-62
2021/07/07 10:28:38;;;;;;;1999.90;999.90;;;;;;;34.22;35.97;95723.84;5109476;28;20290;-62
2021/07/07 10:31:08;;;;;;;1999.90;999.90;;;;;;;34.02;37.05;95713.31;5109731;28;20198;-62
2021/07/07 10:33:36;;;;;;;1999.90;999.90;;;;;;;34.03;36.80;95714.09;5109645;28;20906;-62
2021/07/07 10:36:23;;;;;;;1999.90;999.90;;;;;;;33.77;38.27;95718.88;5109395;28;20201;-62
2021/07/07 10:38:53;;;;;;;1999.90;999.90;;;;;;;33.76;38.51;95716.63;5109449;28;20249;-61
2021/07/07 10:41:48;;;;;;;1999.90;999.90;;;;;;;33.51;38.51;95720.16;5109341;28;20242;-62
2021/07/07 10:44:47;;;;;;;1999.90;999.90;;;;;;;33.86;38.26;95715.50;5109217;28;20618;-61
2021/07/07 10:47:17;;;;;;;1999.90;999.90;;;;;;;33.78;38.46;95714.97;5109636;28;20298;-61
2021/07/07 10:49:46;;;;;;;1999.90;999.90;;;;;;;34.08;36.94;95716.22;5109206;28;20195;-62
2021/07/07 10:52:19;;;;;;;1999.90;999.90;;;;;;;34.17;38.70;95710.88;5109484;28;20296;-61
2021/07/07 10:54:56;;;;;;;1999.90;999.90;;;;;;;33.90;35.90;95711.47;5109311;28;20206;-61
2021/07/07 10:57:35;;;;;;;1999.90;999.90;;;;;;;33.71;39.17;95716.00;5109156;28;20712;-61
2021/07/07 11:00:02;;;;;;;1999.90;999.90;;;;;;;33.97;37.31;95711.22;5109233;28;20195;-62